Becker, MN (55308)

9:54 AM CST on February 13, 2016 (GMT -0600)
Eagle Lake | | Change Station
CLOSE
Current Station
Personal Weather Station
Location: Big Lake, MN
Elevation: 961 ft
Nearby Weather Stations

Elev 961 ft 45.39 °N, 93.75 °W | Updated 2 minutes ago

Mostly Cloudy
Mostly Cloudy
8.6 °F
Feels Like 9 °F
N
1.7
Wind Variable Wind from South

Today
High -- | Low -- °F
--% Chance of Precip.
Yesterday
High -- | Low -- °F
Precip. -- in
Pressure 30.62 in
Visibility 10.0 miles
Clouds Clear
Windchill 9 °F
Dew Point -7 °F
Humidity 48%
Rainfall 0.00 in
Snow Depth Not available.
7:20 AM 5:39 PM
Waxing Crescent, 31% visible
METAR KMGG 131537Z AUTO 13003KT 10SM CLR M19/M23 A3062 RMK AO2 T11921235
Pressure 30.62 in
Visibility 10.0 miles
Clouds Clear
Windchill 9 °F
Dew Point -7 °F
Humidity 48%
Rainfall 0.00 in
Snow Depth Not available.
7:20 AM 5:39 PM
Waxing Crescent, 31% visible
METAR KMGG 131537Z AUTO 13003KT 10SM CLR M19/M23 A3062 RMK AO2 T11921235

10-Day Weather Forecast

Almanac

Astronomy

Feb. 13, 2016 Rise Set
Actual Time
Civil Twilight
Nautical Twilight
Astronomical Twilight
Moon
Length of Visible Light
Length of Day
Tomorrow will be .
, % of the Moon is Illuminated

Today's Extremes

State Highs State Lows

Community

WunderPhotos

Upload Photos

1,892,587 photos uploaded!

WunderBlog® & News

Nearby

Air Quality

  Air Quality AQ Index Pollutant
Not available.

Snow Depth

Station Depth Elevation

Earthquake Activity

City Distance Mag. Time & Date
Minimum magnitude displayed is 2.5.

Coastal Water Temperatures

Place Temperature

Stations

Nearby Weather Stations

Station Location Temp. Windchill Dew Point Humidity Wind Precip. Elev Updated Type
                   

Watches & Warnings

There are currently no watches in effect.